createdAt,value
2022-10-31T00:00:36.715Z,99.99
2022-10-31T00:01:36.664Z,99.99
2022-10-31T00:02:36.750Z,99.99
2022-10-31T00:03:36.632Z,99.99
2022-10-31T00:04:36.623Z,99.99
2022-10-31T00:05:36.617Z,99.99
2022-10-31T00:06:36.611Z,99.99
2022-10-31T00:07:36.604Z,99.99
2022-10-31T00:08:36.595Z,99.99
2022-10-31T00:09:36.591Z,99.99
2022-10-31T00:10:36.612Z,99.99
2022-10-31T00:11:36.580Z,99.99
2022-10-31T00:12:36.569Z,99.99
2022-10-31T00:13:36.565Z,99.99
2022-10-31T00:14:36.552Z,99.99
2022-10-31T00:15:36.555Z,99.99
2022-10-31T00:16:36.563Z,99.99
2022-10-31T00:17:36.546Z,99.99
2022-10-31T00:18:36.525Z,99.99
2022-10-31T00:19:36.517Z,99.99
2022-10-31T00:20:36.512Z,99.99
2022-10-31T00:21:36.532Z,99.99
2022-10-31T00:22:36.494Z,99.99
2022-10-31T00:23:36.488Z,99.99
2022-10-31T00:24:36.480Z,99.99
2022-10-31T00:25:36.473Z,99.99
2022-10-31T00:26:36.471Z,99.99
2022-10-31T00:27:36.461Z,99.99
2022-10-31T00:28:36.451Z,99.99
2022-10-31T00:29:36.445Z,99.99
2022-10-31T00:30:36.439Z,99.99
2022-10-31T00:31:36.432Z,99.99
2022-10-31T00:32:36.420Z,99.99
2022-10-31T00:33:36.416Z,99.99
2022-10-31T00:34:36.410Z,99.99
2022-10-31T00:35:36.401Z,99.99
2022-10-31T00:36:36.396Z,99.99
2022-10-31T00:37:36.387Z,99.99
2022-10-31T00:38:36.380Z,99.99
2022-10-31T00:39:36.377Z,99.99
2022-10-31T00:40:36.369Z,99.99
2022-10-31T00:41:36.360Z,99.99
2022-10-31T00:42:36.354Z,99.99
2022-10-31T00:43:36.353Z,99.99
2022-10-31T00:44:36.348Z,99.99
2022-10-31T00:45:36.333Z,99.99
2022-10-31T00:46:36.358Z,99.99
2022-10-31T00:47:36.316Z,99.99
2022-10-31T00:48:36.329Z,99.99
2022-10-31T00:49:36.307Z,99.99
2022-10-31T00:50:36.299Z,99.99
2022-10-31T00:51:36.314Z,99.99
2022-10-31T00:52:36.282Z,99.99
2022-10-31T00:53:36.273Z,99.99
2022-10-31T00:54:36.264Z,99.99
2022-10-31T00:55:36.259Z,99.99
2022-10-31T00:56:36.249Z,99.99
2022-10-31T00:57:36.242Z,99.99
2022-10-31T00:58:36.236Z,99.99
2022-10-31T00:59:43.401Z,99.99
2022-10-31T01:01:40.351Z,99.99
2022-10-31T01:02:40.328Z,99.99
2022-10-31T01:04:44.178Z,99.99
2022-10-31T01:05:44.157Z,99.99
2022-10-31T01:07:37.078Z,99.99
2022-10-31T01:08:37.043Z,99.99
2022-10-31T01:10:41.049Z,99.99
2022-10-31T01:11:41.036Z,99.99
2022-10-31T01:13:45.023Z,99.99
2022-10-31T01:14:44.999Z,99.99
2022-10-31T01:16:37.915Z,99.99
2022-10-31T01:17:37.905Z,99.99
2022-10-31T01:19:30.822Z,99.99
2022-10-31T01:20:30.795Z,99.99
2022-10-31T01:22:34.785Z,99.99
2022-10-31T01:23:34.773Z,99.99
2022-10-31T01:24:34.764Z,99.99
2022-10-31T01:25:34.754Z,99.99
2022-10-31T01:26:34.752Z,99.99
2022-10-31T01:27:34.743Z,99.99
2022-10-31T01:28:34.736Z,99.99
2022-10-31T01:29:34.725Z,99.99
2022-10-31T01:30:34.723Z,99.99
2022-10-31T01:31:34.709Z,99.99
2022-10-31T01:32:34.715Z,99.99
2022-10-31T01:33:34.698Z,99.99
2022-10-31T01:34:34.687Z,99.99
2022-10-31T01:35:34.688Z,99.99
2022-10-31T01:36:34.672Z,99.99
2022-10-31T01:37:34.672Z,99.99
2022-10-31T01:38:34.668Z,99.99
2022-10-31T01:39:34.649Z,99.99
2022-10-31T01:40:34.653Z,99.99
2022-10-31T01:41:34.635Z,99.99
2022-10-31T01:42:34.639Z,99.99
2022-10-31T01:43:34.627Z,99.99
2022-10-31T01:44:34.619Z,99.99
2022-10-31T01:45:34.608Z,99.99
2022-10-31T01:46:34.626Z,99.99
2022-10-31T01:47:34.596Z,99.99
2022-10-31T01:48:34.581Z,99.99
2022-10-31T01:49:34.582Z,99.99
2022-10-31T01:50:34.569Z,99.99
2022-10-31T01:51:34.562Z,99.99
2022-10-31T01:52:34.553Z,99.99
2022-10-31T01:53:34.547Z,99.99
2022-10-31T01:54:34.549Z,99.99
2022-10-31T01:55:34.530Z,99.99
2022-10-31T01:56:34.525Z,99.99
2022-10-31T01:57:34.518Z,99.99
2022-10-31T01:58:34.514Z,99.99
2022-10-31T01:59:34.504Z,99.99
2022-10-31T02:00:34.501Z,99.99
2022-10-31T02:01:34.568Z,99.99
2022-10-31T02:02:34.648Z,99.99
2022-10-31T02:03:34.472Z,99.99
2022-10-31T02:04:34.465Z,99.99
2022-10-31T02:05:34.461Z,99.99
2022-10-31T02:06:34.459Z,99.99
2022-10-31T02:07:34.441Z,99.99
2022-10-31T02:08:34.434Z,99.99
2022-10-31T02:09:34.427Z,99.99
2022-10-31T02:10:34.421Z,99.99
2022-10-31T02:11:34.410Z,99.99
2022-10-31T02:12:34.406Z,99.99
2022-10-31T02:13:34.396Z,99.99
2022-10-31T02:14:34.389Z,99.99
2022-10-31T02:15:34.380Z,99.99
2022-10-31T02:16:34.376Z,99.99
2022-10-31T02:17:34.368Z,99.99
2022-10-31T02:18:34.358Z,99.99
2022-10-31T02:19:34.356Z,99.99
2022-10-31T02:20:34.344Z,99.99
2022-10-31T02:21:34.337Z,99.99
2022-10-31T02:22:34.329Z,99.99
2022-10-31T02:23:34.320Z,99.99
2022-10-31T02:24:34.312Z,99.99
2022-10-31T02:25:34.305Z,99.99
2022-10-31T02:26:34.311Z,99.99
2022-10-31T02:27:34.286Z,99.99
2022-10-31T02:28:34.284Z,99.99
2022-10-31T02:29:34.279Z,99.99
2022-10-31T02:30:34.265Z,99.99
2022-10-31T02:31:34.261Z,99.99
2022-10-31T02:32:34.250Z,99.99
2022-10-31T02:33:34.255Z,99.99
2022-10-31T02:34:34.240Z,99.99
2022-10-31T02:35:34.228Z,99.99
2022-10-31T02:36:34.224Z,99.99
2022-10-31T02:37:34.212Z,99.99
2022-10-31T02:38:34.209Z,99.99
2022-10-31T02:39:34.199Z,99.99
2022-10-31T02:40:34.209Z,99.99
2022-10-31T02:41:34.181Z,99.99
2022-10-31T02:42:34.179Z,99.99
2022-10-31T02:43:34.170Z,99.99
2022-10-31T02:44:34.161Z,99.99
2022-10-31T02:45:34.155Z,99.99
2022-10-31T02:46:34.150Z,99.99
2022-10-31T02:47:34.149Z,99.99
2022-10-31T02:48:34.133Z,99.99
2022-10-31T02:49:34.125Z,99.99
2022-10-31T02:50:34.124Z,99.99
2022-10-31T02:51:34.101Z,99.99
2022-10-31T02:52:34.101Z,99.99
2022-10-31T02:53:34.093Z,99.99
2022-10-31T02:54:34.098Z,99.99
2022-10-31T02:55:34.073Z,99.99
2022-10-31T02:56:34.067Z,99.99
2022-10-31T02:57:34.063Z,99.99
2022-10-31T02:58:34.053Z,99.99
2022-10-31T02:59:34.047Z,99.99
2022-10-31T03:00:34.037Z,99.99
2022-10-31T03:01:34.178Z,99.99
2022-10-31T03:02:34.132Z,99.99
2022-10-31T03:03:34.014Z,99.99
2022-10-31T03:04:34.007Z,99.99
2022-10-31T03:05:33.996Z,99.99
2022-10-31T03:06:33.997Z,99.99
2022-10-31T03:07:33.992Z,99.99
2022-10-31T03:08:33.988Z,99.99
2022-10-31T03:09:33.966Z,99.99
2022-10-31T03:10:33.961Z,99.99
2022-10-31T03:11:33.955Z,99.99
2022-10-31T03:12:33.945Z,99.99
2022-10-31T03:13:33.942Z,99.99
2022-10-31T03:14:33.930Z,99.99
2022-10-31T03:15:33.935Z,99.99
2022-10-31T03:16:33.914Z,99.99
2022-10-31T03:17:33.909Z,99.99
2022-10-31T03:18:33.901Z,99.99
2022-10-31T03:19:33.891Z,99.99
2022-10-31T03:20:33.892Z,99.99
2022-10-31T03:21:33.874Z,99.99
2022-10-31T03:22:33.881Z,99.99
2022-10-31T03:23:33.860Z,99.99
2022-10-31T03:24:33.854Z,99.99
2022-10-31T03:25:33.848Z,99.99
2022-10-31T03:26:33.839Z,99.99
2022-10-31T03:27:33.834Z,99.99
2022-10-31T03:28:33.824Z,99.99
2022-10-31T03:29:33.831Z,99.99
2022-10-31T03:30:33.808Z,99.99
2022-10-31T03:31:33.799Z,99.99
2022-10-31T03:32:33.806Z,99.99
2022-10-31T03:33:33.783Z,99.99
2022-10-31T03:34:33.779Z,99.99
2022-10-31T03:35:33.769Z,99.99
2022-10-31T03:36:33.777Z,99.99
2022-10-31T03:37:33.755Z,99.99
2022-10-31T03:38:33.753Z,99.99
2022-10-31T03:39:33.742Z,99.99
2022-10-31T03:40:33.732Z,99.99
2022-10-31T03:41:33.727Z,99.99
2022-10-31T03:42:33.721Z,99.99
2022-10-31T03:43:33.724Z,99.99
2022-10-31T03:44:33.703Z,99.99
2022-10-31T03:45:33.690Z,99.99
2022-10-31T03:46:33.692Z,99.99
2022-10-31T03:47:33.695Z,99.99
2022-10-31T03:48:33.674Z,99.99
2022-10-31T03:49:33.666Z,99.99
2022-10-31T03:50:33.666Z,99.99
2022-10-31T03:51:33.645Z,99.99
2022-10-31T03:52:33.641Z,99.99
2022-10-31T03:53:33.635Z,99.99
2022-10-31T03:54:33.623Z,99.99
2022-10-31T03:55:33.624Z,99.99
2022-10-31T03:56:33.611Z,99.99
2022-10-31T03:57:33.621Z,99.99
2022-10-31T03:58:33.621Z,99.99
2022-10-31T03:59:33.585Z,99.99
2022-10-31T04:00:33.582Z,99.99
2022-10-31T04:01:33.729Z,99.99
2022-10-31T04:02:36.345Z,99.99
2022-10-31T04:03:33.556Z,99.99
2022-10-31T04:04:33.609Z,99.99
2022-10-31T04:05:33.539Z,99.99
2022-10-31T04:06:33.534Z,99.99
2022-10-31T04:07:33.527Z,99.99
2022-10-31T04:08:33.518Z,99.99
2022-10-31T04:09:33.517Z,99.99
2022-10-31T04:10:33.568Z,99.99
2022-10-31T04:11:33.501Z,99.99
2022-10-31T04:12:33.486Z,99.99
2022-10-31T04:13:33.480Z,99.99
2022-10-31T04:14:33.473Z,99.99
2022-10-31T04:15:33.485Z,99.99
2022-10-31T04:16:33.463Z,99.99
2022-10-31T04:17:33.449Z,99.99
2022-10-31T04:18:33.453Z,99.99
2022-10-31T04:19:33.433Z,99.99
2022-10-31T04:20:33.427Z,99.99
2022-10-31T04:21:33.423Z,99.99
2022-10-31T04:22:33.409Z,99.99
2022-10-31T04:23:33.420Z,99.99
2022-10-31T04:24:33.397Z,99.99
2022-10-31T04:25:33.397Z,99.99
2022-10-31T04:26:33.379Z,99.99
2022-10-31T04:27:33.376Z,99.99
2022-10-31T04:28:33.368Z,99.99
2022-10-31T04:29:33.358Z,99.99
2022-10-31T04:30:33.359Z,99.99
2022-10-31T04:31:33.356Z,99.99
2022-10-31T04:32:33.343Z,99.99
2022-10-31T04:33:33.327Z,99.99
2022-10-31T04:34:33.323Z,99.99
2022-10-31T04:35:33.317Z,99.99
2022-10-31T04:36:33.303Z,99.99
2022-10-31T04:37:33.302Z,99.99
2022-10-31T04:38:33.286Z,99.99
2022-10-31T04:39:33.291Z,99.99
2022-10-31T04:40:33.272Z,99.99
2022-10-31T04:41:33.269Z,99.99
2022-10-31T04:42:33.263Z,99.99
2022-10-31T04:43:33.249Z,99.99
2022-10-31T04:44:33.248Z,99.99
2022-10-31T04:45:33.236Z,99.99
2022-10-31T04:46:33.238Z,99.99
2022-10-31T04:47:33.226Z,99.99
2022-10-31T04:48:33.212Z,99.99
2022-10-31T04:49:33.207Z,99.99
2022-10-31T04:50:33.203Z,99.99
2022-10-31T04:51:33.195Z,99.99
2022-10-31T04:52:33.181Z,99.99
2022-10-31T04:53:33.184Z,99.99
2022-10-31T04:54:33.166Z,99.99
2022-10-31T04:55:33.159Z,99.99
2022-10-31T04:56:33.158Z,99.99
2022-10-31T04:57:33.143Z,99.99
2022-10-31T04:58:33.142Z,99.99
2022-10-31T04:59:33.124Z,99.99
2022-10-31T05:00:33.128Z,99.99
2022-10-31T05:01:33.200Z,99.99
2022-10-31T05:02:33.102Z,99.99
2022-10-31T05:03:33.100Z,99.99
2022-10-31T05:04:33.088Z,99.99
2022-10-31T05:05:33.085Z,99.99
2022-10-31T05:06:33.068Z,99.99
2022-10-31T05:07:33.067Z,99.99
2022-10-31T05:08:33.058Z,99.99
2022-10-31T05:09:33.053Z,99.99
2022-10-31T05:10:33.046Z,99.99
2022-10-31T05:11:33.030Z,99.99
2022-10-31T05:12:33.029Z,99.99
2022-10-31T05:13:33.021Z,99.99
2022-10-31T05:14:33.012Z,99.99
2022-10-31T05:15:33.006Z,99.99
2022-10-31T05:16:32.992Z,99.99
2022-10-31T05:17:32.992Z,99.99
2022-10-31T05:18:32.977Z,99.99
2022-10-31T05:19:32.973Z,99.99
2022-10-31T05:20:32.964Z,99.99
2022-10-31T05:21:32.953Z,99.99
2022-10-31T05:22:32.948Z,99.99
2022-10-31T05:23:32.940Z,99.99
2022-10-31T05:24:32.942Z,99.99
2022-10-31T05:25:32.926Z,99.99
2022-10-31T05:26:32.917Z,99.99
2022-10-31T05:27:32.909Z,99.99
2022-10-31T05:28:32.900Z,99.99
2022-10-31T05:29:32.903Z,99.99
2022-10-31T05:30:32.884Z,99.99
2022-10-31T05:31:32.887Z,99.99
2022-10-31T05:32:32.868Z,99.99
2022-10-31T05:33:32.857Z,99.99
2022-10-31T05:34:32.857Z,99.99
2022-10-31T05:35:32.849Z,99.99
2022-10-31T05:36:32.839Z,99.99
2022-10-31T05:37:32.834Z,99.99
2022-10-31T05:38:32.832Z,99.99
2022-10-31T05:39:32.818Z,99.99
2022-10-31T05:40:32.812Z,99.99
2022-10-31T05:41:32.800Z,99.99
2022-10-31T05:42:32.788Z,99.99
2022-10-31T05:43:32.784Z,99.99
2022-10-31T05:44:32.778Z,99.99
2022-10-31T05:45:32.766Z,99.99
2022-10-31T05:47:32.749Z,99.99
2022-10-31T05:48:32.749Z,99.99
2022-10-31T05:49:32.732Z,99.99
2022-10-31T05:50:32.731Z,99.99
2022-10-31T05:51:32.729Z,99.99
2022-10-31T05:52:32.715Z,99.99
2022-10-31T05:53:32.711Z,99.99
2022-10-31T05:54:32.697Z,99.99
2022-10-31T05:55:32.693Z,99.99
2022-10-31T05:56:32.682Z,99.99
2022-10-31T05:57:32.674Z,99.99
2022-10-31T05:58:32.668Z,99.99
2022-10-31T05:59:32.654Z,99.99
2022-10-31T06:00:32.656Z,99.99
2022-10-31T06:01:32.725Z,99.99
2022-10-31T06:02:32.639Z,99.99
2022-10-31T06:03:32.625Z,99.99
2022-10-31T06:04:32.666Z,99.99
2022-10-31T06:05:32.615Z,99.99
2022-10-31T06:06:32.603Z,99.99
2022-10-31T06:07:32.601Z,99.99
2022-10-31T06:08:32.588Z,99.99
2022-10-31T06:09:32.584Z,99.99
2022-10-31T06:10:32.571Z,99.99
2022-10-31T06:11:32.559Z,99.99
2022-10-31T06:12:32.562Z,99.99
2022-10-31T06:13:32.545Z,99.99
2022-10-31T06:14:32.539Z,99.99
2022-10-31T06:15:32.530Z,99.99
2022-10-31T06:16:32.520Z,99.99
2022-10-31T06:17:32.517Z,99.99
2022-10-31T06:18:32.506Z,99.99
2022-10-31T06:19:32.520Z,99.99
2022-10-31T06:20:32.487Z,99.99
2022-10-31T06:21:32.485Z,99.99
2022-10-31T06:22:32.477Z,99.99
2022-10-31T06:23:32.464Z,99.99
2022-10-31T06:24:32.468Z,99.99
2022-10-31T06:25:32.458Z,99.99
2022-10-31T06:26:32.454Z,99.99
2022-10-31T06:27:32.435Z,99.99
2022-10-31T06:28:32.425Z,99.99
2022-10-31T06:29:32.421Z,99.99
2022-10-31T06:30:32.409Z,99.99
2022-10-31T06:31:32.410Z,99.99
2022-10-31T06:32:32.394Z,99.99
2022-10-31T06:33:32.401Z,99.99
2022-10-31T06:34:32.380Z,99.99
2022-10-31T06:35:32.377Z,99.99
2022-10-31T06:36:32.372Z,99.99
2022-10-31T06:37:32.360Z,99.99
2022-10-31T06:38:32.354Z,99.99
2022-10-31T06:39:32.344Z,99.99
2022-10-31T06:40:32.332Z,99.99
2022-10-31T06:41:32.328Z,99.99
2022-10-31T06:42:32.318Z,99.99
2022-10-31T06:43:32.316Z,99.99
2022-10-31T06:44:32.302Z,99.99
2022-10-31T06:45:32.301Z,99.99
2022-10-31T06:46:32.291Z,99.99
2022-10-31T06:47:32.463Z,99.99
2022-10-31T06:48:32.278Z,99.99
2022-10-31T06:49:32.263Z,99.99
2022-10-31T06:50:32.265Z,99.99
2022-10-31T06:51:32.245Z,99.99
2022-10-31T06:52:32.242Z,99.99
2022-10-31T06:53:32.249Z,99.99
2022-10-31T06:54:32.242Z,99.99
2022-10-31T06:55:32.220Z,99.99
2022-10-31T06:56:32.212Z,99.99
2022-10-31T06:57:32.206Z,99.99
2022-10-31T06:58:32.197Z,99.99
2022-10-31T07:01:03.921Z,99.99
2022-10-31T07:02:03.913Z,99.99
2022-10-31T07:03:56.740Z,99.99
2022-10-31T07:04:56.727Z,99.99
2022-10-31T07:07:01.219Z,99.99
2022-10-31T07:08:01.595Z,99.99
2022-10-31T07:09:01.190Z,99.99
2022-10-31T07:10:01.251Z,99.99
2022-10-31T07:11:01.180Z,99.99
2022-10-31T07:12:01.169Z,99.99
2022-10-31T07:13:01.593Z,99.99
2022-10-31T07:14:01.153Z,99.99
2022-10-31T07:15:01.195Z,99.99
2022-10-31T07:16:01.144Z,99.99
2022-10-31T07:17:01.132Z,99.99
2022-10-31T07:18:01.126Z,99.99
2022-10-31T07:19:01.119Z,99.99
2022-10-31T07:20:01.113Z,99.99
2022-10-31T07:21:01.103Z,99.99
2022-10-31T07:22:01.097Z,99.99
2022-10-31T07:23:01.539Z,99.99
2022-10-31T07:24:01.370Z,99.99
2022-10-31T07:25:01.097Z,99.99
2022-10-31T07:26:01.073Z,99.99
2022-10-31T07:27:01.065Z,99.99
2022-10-31T07:28:01.518Z,99.99
2022-10-31T07:29:01.053Z,99.99
2022-10-31T07:30:01.038Z,99.99
2022-10-31T07:31:01.042Z,99.99
2022-10-31T07:32:01.033Z,99.99
2022-10-31T07:33:01.022Z,99.99
2022-10-31T07:34:01.013Z,99.99
2022-10-31T07:35:01.009Z,99.99
2022-10-31T07:36:01.002Z,99.99
2022-10-31T07:37:00.999Z,99.99
2022-10-31T07:38:01.305Z,99.99
2022-10-31T07:39:00.990Z,99.99
2022-10-31T07:40:00.975Z,99.99
2022-10-31T07:41:00.967Z,99.99
2022-10-31T07:42:00.955Z,99.99
2022-10-31T07:43:00.954Z,99.99
2022-10-31T07:44:00.949Z,99.99
2022-10-31T07:45:00.939Z,99.99
2022-10-31T07:46:00.959Z,99.99
2022-10-31T07:47:00.950Z,99.99
2022-10-31T07:48:01.195Z,99.99
2022-10-31T07:49:00.912Z,99.99
2022-10-31T07:50:00.923Z,99.99
2022-10-31T07:51:00.903Z,99.99
2022-10-31T07:52:00.892Z,99.99
2022-10-31T07:53:00.885Z,99.99
2022-10-31T07:54:00.878Z,99.99
2022-10-31T07:55:00.878Z,99.99
2022-10-31T07:56:00.868Z,99.99
2022-10-31T07:57:00.860Z,99.99
2022-10-31T07:58:01.199Z,99.99
2022-10-31T07:59:00.847Z,99.99
2022-10-31T08:00:00.839Z,99.99
2022-10-31T08:01:00.940Z,99.99
2022-10-31T08:02:00.824Z,99.99
2022-10-31T08:03:01.050Z,99.99
2022-10-31T08:04:00.811Z,99.99
2022-10-31T08:05:01.486Z,99.99
2022-10-31T08:06:00.800Z,99.99
2022-10-31T08:07:00.794Z,99.99
2022-10-31T08:08:01.079Z,99.99
2022-10-31T08:09:00.775Z,99.99
2022-10-31T08:10:00.773Z,99.99
2022-10-31T08:11:00.768Z,99.99
2022-10-31T08:12:00.760Z,99.99
2022-10-31T08:13:00.752Z,99.99
2022-10-31T08:14:00.745Z,99.99
2022-10-31T08:15:00.738Z,99.81
2022-10-31T08:16:00.733Z,99.99
2022-10-31T08:17:00.725Z,99.99
2022-10-31T08:18:01.079Z,99.99
2022-10-31T08:19:00.712Z,99.99
2022-10-31T08:20:00.702Z,99.97
2022-10-31T08:21:00.702Z,99.99
2022-10-31T08:22:00.692Z,99.61
2022-10-31T08:23:00.686Z,99.77
2022-10-31T08:24:00.685Z,99.61
2022-10-31T08:25:00.688Z,99.81
2022-10-31T08:26:00.668Z,99.61
2022-10-31T08:27:00.659Z,99.87
2022-10-31T08:28:01.041Z,99.81
2022-10-31T08:29:00.651Z,99.51
2022-10-31T08:30:00.646Z,99.36
2022-10-31T08:31:00.642Z,99.61
2022-10-31T08:32:00.627Z,99.71
2022-10-31T08:33:00.620Z,99.81
2022-10-31T08:34:00.616Z,99.81
2022-10-31T08:35:00.622Z,99.41
2022-10-31T08:36:00.605Z,99.61
2022-10-31T08:37:00.596Z,99.61
2022-10-31T08:38:01.042Z,99.81
2022-10-31T08:39:02.044Z,99.81
2022-10-31T08:40:00.578Z,99.71
2022-10-31T08:41:00.570Z,99.99
2022-10-31T08:42:00.576Z,99.61
2022-10-31T08:43:00.561Z,99.71
2022-10-31T08:44:00.550Z,99.71
2022-10-31T08:45:00.545Z,99.99
2022-10-31T08:46:00.710Z,99.99
2022-10-31T08:47:00.577Z,99.99
2022-10-31T08:48:00.823Z,99.99
2022-10-31T08:49:00.523Z,99.99
2022-10-31T08:50:00.513Z,99.99
2022-10-31T08:51:00.514Z,99.77
2022-10-31T08:52:00.504Z,99.77
2022-10-31T08:53:05.258Z,99.77
2022-10-31T08:54:00.490Z,99.56
2022-10-31T08:55:00.483Z,99.99
2022-10-31T08:56:00.477Z,99.82
2022-10-31T08:57:00.471Z,99.72
2022-10-31T08:58:00.843Z,99.82
2022-10-31T08:59:00.460Z,99.92
2022-10-31T09:00:00.451Z,99.82
2022-10-31T09:01:00.511Z,99.82
2022-10-31T09:02:00.527Z,99.21
2022-10-31T09:03:00.432Z,99.41
2022-10-31T09:04:00.427Z,99.27
2022-10-31T09:05:00.426Z,98.91
2022-10-31T09:06:00.462Z,99.37
2022-10-31T09:07:20.145Z,99.16
2022-10-31T09:08:00.845Z,99.16
2022-10-31T09:09:00.398Z,99.37
2022-10-31T09:10:00.389Z,99.27
2022-10-31T09:11:00.392Z,98.96
2022-10-31T09:12:00.374Z,99.11
2022-10-31T09:13:00.368Z,99.16
2022-10-31T09:14:00.363Z,98.81
2022-10-31T09:15:00.357Z,99.02
2022-10-31T09:16:00.681Z,98.81
2022-10-31T09:17:00.350Z,99.11
2022-10-31T09:18:00.772Z,98.81
2022-10-31T09:19:00.336Z,99.11
2022-10-31T09:20:00.326Z,98.81
2022-10-31T09:21:00.321Z,99.11
2022-10-31T09:22:00.314Z,98.71
2022-10-31T09:23:00.322Z,99.07
2022-10-31T09:24:00.305Z,99.07
2022-10-31T09:25:00.300Z,98.26
2022-10-31T09:26:00.295Z,98.16
2022-10-31T09:27:00.333Z,97.75
2022-10-31T09:28:00.607Z,97.96
2022-10-31T09:29:00.314Z,97.44
2022-10-31T09:30:00.273Z,97.24
2022-10-31T09:31:00.263Z,97.55
2022-10-31T09:32:00.259Z,97.30
2022-10-31T09:33:00.251Z,97.40
2022-10-31T09:34:00.242Z,97.50
2022-10-31T09:35:00.309Z,97.40
2022-10-31T09:36:00.235Z,97.60
2022-10-31T09:37:00.228Z,97.20
2022-10-31T09:38:00.735Z,96.95
2022-10-31T09:39:00.218Z,97.15
2022-10-31T09:40:00.209Z,97.15
2022-10-31T09:41:00.306Z,97.25
2022-10-31T09:42:00.198Z,96.75
2022-10-31T09:43:00.194Z,97.05
2022-10-31T09:44:00.186Z,97.45
2022-10-31T09:45:00.181Z,97.20
2022-10-31T09:46:00.178Z,97.41
2022-10-31T09:47:00.173Z,96.30
2022-10-31T09:48:00.525Z,96.34
2022-10-31T09:49:00.160Z,95.89
2022-10-31T09:50:00.247Z,95.89
2022-10-31T09:51:00.222Z,95.89
2022-10-31T09:52:00.215Z,95.89
2022-10-31T09:53:00.461Z,95.68
2022-10-31T09:54:00.146Z,95.89
2022-10-31T09:55:00.149Z,95.79
2022-10-31T09:56:00.187Z,95.89
2022-10-31T09:57:00.114Z,96.09
2022-10-31T09:58:00.119Z,95.94
2022-10-31T09:59:00.108Z,95.13
2022-10-31T10:00:00.098Z,95.34
2022-10-31T10:01:00.228Z,95.28
2022-10-31T10:02:00.191Z,94.83
2022-10-31T10:03:00.400Z,94.93
2022-10-31T10:04:00.082Z,95.03
2022-10-31T10:05:00.073Z,95.50
2022-10-31T10:06:00.072Z,94.53
2022-10-31T10:07:00.102Z,95.19
2022-10-31T10:08:00.057Z,94.98
2022-10-31T10:09:00.050Z,94.38
2022-10-31T10:10:00.046Z,94.38
2022-10-31T10:11:00.043Z,94.18
2022-10-31T10:12:00.042Z,94.38
2022-10-31T10:13:02.216Z,94.38
2022-10-31T10:14:00.025Z,94.07
2022-10-31T10:15:00.027Z,94.23
2022-10-31T10:16:00.015Z,93.62
2022-10-31T10:17:00.007Z,93.78
2022-10-31T10:18:00.005Z,93.22
2022-10-31T10:18:59.997Z,93.62
2022-10-31T10:19:59.992Z,93.52
2022-10-31T10:20:59.988Z,93.22
2022-10-31T10:21:59.982Z,93.12
2022-10-31T10:23:00.392Z,93.07
2022-10-31T10:23:59.988Z,93.48
2022-10-31T10:24:59.970Z,93.07
2022-10-31T10:25:59.964Z,93.18
2022-10-31T10:26:59.955Z,93.18
2022-10-31T10:28:00.363Z,92.67
2022-10-31T10:28:59.947Z,92.36
2022-10-31T10:29:59.943Z,92.02
2022-10-31T10:30:59.941Z,92.02
2022-10-31T10:31:59.940Z,91.31
2022-10-31T10:32:59.930Z,91.61
2022-10-31T10:34:00.073Z,91.20
2022-10-31T10:34:59.919Z,91.51
2022-10-31T10:35:59.917Z,91.41
2022-10-31T10:36:59.915Z,91.41
2022-10-31T10:38:00.536Z,91.47
2022-10-31T10:38:59.906Z,90.70
2022-10-31T10:39:59.898Z,90.40
2022-10-31T10:40:59.890Z,90.80
2022-10-31T10:41:59.883Z,90.66
2022-10-31T10:42:59.880Z,90.56
2022-10-31T10:43:59.876Z,90.76
2022-10-31T10:44:59.870Z,90.05
2022-10-31T10:45:59.866Z,89.95
2022-10-31T10:46:59.861Z,89.75
2022-10-31T10:48:00.260Z,90.25
2022-10-31T10:48:59.851Z,90.16
2022-10-31T10:49:59.848Z,90.25
2022-10-31T10:50:59.841Z,89.75
2022-10-31T10:52:19.495Z,90.05
2022-10-31T10:52:59.831Z,90.25
2022-10-31T10:53:59.832Z,90.16
2022-10-31T10:54:59.830Z,90.25
2022-10-31T10:55:59.821Z,90.01
2022-10-31T10:56:59.813Z,90.11
2022-10-31T10:58:00.266Z,90.01
2022-10-31T10:58:59.805Z,89.65
2022-10-31T10:59:59.801Z,90.01
2022-10-31T11:00:59.898Z,90.21
2022-10-31T11:01:59.793Z,90.05
2022-10-31T11:02:59.961Z,90.11
2022-10-31T11:03:59.782Z,90.21
2022-10-31T11:04:59.775Z,89.40
2022-10-31T11:05:59.771Z,89.40
2022-10-31T11:06:59.766Z,89.61
2022-10-31T11:07:59.765Z,89.30
2022-10-31T11:08:59.756Z,89.40
2022-10-31T11:09:59.754Z,90.17
2022-10-31T11:10:59.749Z,90.21
2022-10-31T11:11:59.744Z,90.37
2022-10-31T11:12:59.960Z,89.97
2022-10-31T11:13:59.736Z,88.96
2022-10-31T11:14:59.728Z,89.06
2022-10-31T11:15:59.727Z,89.06
2022-10-31T11:16:59.722Z,89.12
2022-10-31T11:17:59.717Z,89.26
2022-10-31T11:18:59.710Z,89.12
2022-10-31T11:19:59.708Z,89.62
2022-10-31T11:20:59.705Z,88.51
2022-10-31T11:21:59.699Z,89.01
2022-10-31T11:22:59.695Z,89.01
2022-10-31T11:23:59.690Z,89.01
2022-10-31T11:24:59.686Z,88.71
2022-10-31T11:25:59.678Z,88.21
2022-10-31T11:26:59.674Z,88.06
2022-10-31T11:27:59.674Z,87.90
2022-10-31T11:28:59.671Z,88.26
2022-10-31T11:30:00.817Z,87.50
2022-10-31T11:30:59.659Z,87.30
2022-10-31T11:31:59.658Z,87.56
2022-10-31T11:32:59.938Z,88.06
2022-10-31T11:33:59.648Z,88.06
2022-10-31T11:34:59.643Z,87.66
2022-10-31T11:35:59.638Z,87.86
2022-10-31T11:36:59.633Z,87.56
2022-10-31T11:37:59.981Z,87.32
2022-10-31T11:38:59.631Z,87.66
2022-10-31T11:39:59.624Z,87.72
2022-10-31T11:40:59.618Z,87.72
2022-10-31T11:41:59.617Z,87.72
2022-10-31T11:42:59.631Z,87.32
2022-10-31T11:43:59.603Z,87.72
2022-10-31T11:44:59.600Z,87.62
2022-10-31T11:45:59.597Z,86.91
2022-10-31T11:46:59.594Z,87.01
2022-10-31T11:48:00.277Z,87.07
2022-10-31T11:48:59.587Z,86.57
2022-10-31T11:49:59.581Z,86.57
2022-10-31T11:50:59.581Z,86.67
2022-10-31T11:51:59.572Z,86.36
2022-10-31T11:52:59.573Z,86.47
2022-10-31T11:54:02.715Z,86.36
2022-10-31T11:54:59.563Z,86.97
2022-10-31T11:55:59.558Z,86.30
2022-10-31T11:56:59.552Z,86.97
2022-10-31T11:57:59.890Z,86.77
2022-10-31T11:58:59.544Z,86.61
2022-10-31T11:59:59.541Z,86.61
2022-10-31T12:00:59.536Z,87.12
2022-10-31T12:01:59.694Z,86.71
2022-10-31T12:02:59.922Z,86.71
2022-10-31T12:03:59.526Z,86.30
2022-10-31T12:04:59.521Z,87.01
2022-10-31T12:05:59.516Z,87.12
2022-10-31T12:06:59.514Z,87.12
2022-10-31T12:08:03.434Z,87.21
2022-10-31T12:08:59.501Z,87.62
2022-10-31T12:09:59.499Z,87.52
2022-10-31T12:10:59.546Z,86.97
2022-10-31T12:11:59.493Z,87.62
2022-10-31T12:12:59.760Z,87.68
2022-10-31T12:14:03.625Z,86.87
2022-10-31T12:14:59.479Z,86.77
2022-10-31T12:15:59.474Z,86.27
2022-10-31T12:16:59.474Z,86.87
2022-10-31T12:18:59.466Z,86.63
2022-10-31T12:19:59.464Z,86.33
2022-10-31T12:20:59.458Z,86.63
2022-10-31T12:21:59.453Z,86.43
2022-10-31T12:22:59.809Z,86.63
2022-10-31T12:23:59.446Z,87.23
2022-10-31T12:24:59.442Z,86.33
2022-10-31T12:25:59.438Z,86.63
2022-10-31T12:26:59.436Z,86.13
2022-10-31T12:27:59.430Z,86.43
2022-10-31T12:28:59.426Z,85.92
2022-10-31T12:29:59.423Z,86.22
2022-10-31T12:30:59.420Z,86.13
2022-10-31T12:31:59.416Z,86.22
2022-10-31T12:32:59.634Z,86.02
2022-10-31T12:33:59.408Z,86.63
2022-10-31T12:34:59.426Z,86.22
2022-10-31T12:35:59.403Z,86.53
2022-10-31T12:36:59.397Z,86.73
2022-10-31T12:37:59.652Z,86.43
2022-10-31T12:38:59.390Z,85.82
2022-10-31T12:39:59.387Z,85.31
2022-10-31T12:40:59.378Z,86.83
2022-10-31T12:41:59.379Z,86.73
2022-10-31T12:42:59.745Z,86.22
2022-10-31T12:43:59.371Z,86.73
2022-10-31T12:44:59.367Z,86.63
2022-10-31T12:45:59.360Z,86.73
2022-10-31T12:46:59.361Z,86.83
2022-10-31T12:47:59.358Z,86.53
2022-10-31T12:48:59.354Z,86.83
2022-10-31T12:49:59.359Z,87.13
2022-10-31T12:50:59.348Z,86.73
2022-10-31T12:51:59.336Z,87.13
2022-10-31T12:52:59.596Z,87.13
2022-10-31T12:53:59.334Z,87.54
2022-10-31T12:54:59.331Z,87.13
2022-10-31T12:55:59.327Z,87.23
2022-10-31T12:56:59.328Z,87.03
2022-10-31T12:57:59.636Z,87.54
2022-10-31T12:58:59.317Z,87.54
2022-10-31T12:59:59.314Z,87.03
2022-10-31T13:00:59.360Z,87.13
2022-10-31T13:01:59.404Z,86.83
2022-10-31T13:02:59.299Z,87.13
2022-10-31T13:03:59.301Z,87.84
2022-10-31T13:04:59.296Z,87.70
2022-10-31T13:05:59.291Z,87.70